Date,TemperatureHighF,TemperatureAvgF,TemperatureLowF,DewpointHighF,DewpointAvgF,DewpointLowF,HumidityHigh,HumidityAvg,HumidityLow,PressureMaxIn,PressureMinIn,WindSpeedMaxMPH,WindSpeedAvgMPH,GustSpeedMaxMPH,PrecipitationSumIn
2013-3-1,63.9,57.2,53.8,46.7,39.8,34.0,68,53,34,30.01,29.92,15,5,15,0.00
2013-3-2,60.6,52.8,42.4,36.3,30.3,24.0,53,42,27,30.04,29.98,20,6,21,0.00
2013-3-3,57.7,46.5,37.2,33.8,27.8,24.9,67,49,29,30.17,29.99,17,6,24,0.00
2013-3-4,69.3,50.5,36.5,32.3,22.5,4.6,68,41,11,30.24,30.13,14,4,19,0.00
2013-3-5,80.2,58.5,42.1,50.5,34.4,22.5,72,45,12,30.19,30.06,13,4,17,0.00
2013-3-6,71.1,61.3,47.3,59.3,40.1,10.0,83,53,12,30.15,29.97,16,8,22,0.00
2013-3-7,68.4,52.2,42.1,37.4,33.7,25.3,71,52,20,30.22,30.11,19,5,19,0.00
2013-3-8,76.6,56.8,42.1,51.4,35.7,17.0,96,54,12,30.25,30.11,13,3,14,0.00
2013-3-9,76.3,63.0,50.9,54.4,48.7,40.8,93,63,29,30.23,30.12,19,7,19,0.00
2013-3-10,84.2,67.4,53.1,59.6,55.2,49.0,97,69,32,30.19,30.06,14,4,16,0.00
2013-3-11,82.2,68.3,55.9,64.6,57.1,50.0,93,69,41,30.12,29.93,10,2,11,0.00
2013-3-12,73.9,68.2,57.6,71.5,64.1,55.3,100,86,67,30.04,29.90,14,6,19,0.11
2013-3-13,75.4,60.3,48.4,55.2,39.9,16.3,100,62,12,30.19,30.03,21,6,21,0.00
2013-3-14,69.8,56.6,47.1,47.5,34.2,15.8,83,50,16,30.26,30.15,21,7,23,0.00
2013-3-15,74.5,55.5,43.7,51.1,37.5,17.6,100,63,16,30.30,30.16,16,4,20,0.00
2013-3-16,82.0,60.3,44.8,61.5,42.3,34.6,100,58,19,30.21,30.06,8,2,11,0.00
2013-3-17,81.3,63.5,50.2,60.1,50.6,40.4,100,65,36,30.16,30.00,6,1,11,0.00
2013-3-18,83.1,70.2,62.8,68.5,62.2,53.6,97,77,51,30.06,29.89,14,4,21,0.01
2013-3-19,85.6,71.9,63.9,68.5,64.0,58.2,100,79,42,30.02,29.88,11,2,11,0.00
2013-3-20,79.0,69.0,64.2,67.4,60.6,55.3,93,76,49,29.97,29.81,13,4,21,0.07
2013-3-21,74.5,61.9,52.5,60.1,42.6,22.1,96,60,16,29.98,29.85,17,4,17,0.01
2013-3-22,80.8,61.7,47.1,68.3,52.7,32.0,100,75,41,30.01,29.90,14,4,17,0.77
2013-3-23,88.3,74.1,64.9,74.8,65.4,60.6,96,76,43,29.99,29.79,15,4,22,0.01
2013-3-24,86.5,75.0,70.2,74.1,69.0,64.6,96,82,54,29.86,29.65,31,8,46,0.58
2013-3-25,74.5,66.7,54.1,72.8,45.5,12.3,97,59,12,30.04,29.75,19,6,21,0.01
2013-3-26,62.6,53.7,45.1,49.7,34.6,18.3,89,52,20,30.25,30.03,17,7,24,0.00
2013-3-27,65.8,50.8,41.5,45.6,37.4,22.0,100,68,22,30.32,30.20,15,5,18,0.00
2013-3-28,72.0,55.0,40.6,54.3,41.2,26.4,100,70,22,30.31,30.18,12,4,16,0.00
2013-3-29,75.7,60.0,46.9,59.6,44.2,28.7,100,66,22,30.34,30.20,15,4,17,0.00
2013-3-30,82.4,64.3,50.9,66.7,53.1,46.2,100,74,32,30.27,30.13,8,2,8,0.00
2013-3-31,85.8,70.2,57.7,66.0,56.3,48.4,100,66,28,30.19,30.00,11,3,14,0.00